sensor_id;sensor_type;location;lat;lon;timestamp;P1;durP1;ratioP1;P2;durP2;ratioP2
29732;SDS011;16643;43.158;25.302;2023-05-29T00:01:07;14.10;;;8.65;;
29732;SDS011;16643;43.158;25.302;2023-05-29T00:03:46;19.27;;;9.32;;
29732;SDS011;16643;43.158;25.302;2023-05-29T00:06:25;13.38;;;8.80;;
29732;SDS011;16643;43.158;25.302;2023-05-29T00:09:03;13.17;;;8.13;;
29732;SDS011;16643;43.158;25.302;2023-05-29T00:11:29;10.95;;;8.10;;
29732;SDS011;16643;43.158;25.302;2023-05-29T00:13:59;14.82;;;9.10;;
29732;SDS011;16643;43.158;25.302;2023-05-29T00:16:47;14.40;;;9.48;;
29732;SDS011;16643;43.158;25.302;2023-05-29T00:19:23;11.05;;;8.27;;
29732;SDS011;16643;43.158;25.302;2023-05-29T00:21:57;12.02;;;8.40;;
29732;SDS011;16643;43.158;25.302;2023-05-29T00:24:22;14.15;;;9.30;;
29732;SDS011;16643;43.158;25.302;2023-05-29T00:27:01;10.83;;;8.43;;
29732;SDS011;16643;43.158;25.302;2023-05-29T00:29:34;13.30;;;9.23;;
29732;SDS011;16643;43.158;25.302;2023-05-29T00:32:03;14.00;;;9.63;;
29732;SDS011;16643;43.158;25.302;2023-05-29T00:34:38;15.48;;;9.90;;
29732;SDS011;16643;43.158;25.302;2023-05-29T00:37:05;13.60;;;9.85;;
29732;SDS011;16643;43.158;25.302;2023-05-29T00:39:36;15.35;;;9.63;;
29732;SDS011;16643;43.158;25.302;2023-05-29T00:42:14;15.10;;;10.63;;
29732;SDS011;16643;43.158;25.302;2023-05-29T00:44:42;14.80;;;9.82;;
29732;SDS011;16643;43.158;25.302;2023-05-29T00:47:21;15.85;;;11.05;;
29732;SDS011;16643;43.158;25.302;2023-05-29T00:49:49;16.08;;;9.35;;
29732;SDS011;16643;43.158;25.302;2023-05-29T00:52:21;14.68;;;9.93;;
29732;SDS011;16643;43.158;25.302;2023-05-29T00:54:54;15.88;;;9.73;;
29732;SDS011;16643;43.158;25.302;2023-05-29T00:57:38;17.30;;;10.77;;
29732;SDS011;16643;43.158;25.302;2023-05-29T01:00:14;19.15;;;10.60;;
29732;SDS011;16643;43.158;25.302;2023-05-29T01:02:41;17.35;;;10.07;;
29732;SDS011;16643;43.158;25.302;2023-05-29T01:05:12;15.55;;;11.02;;
29732;SDS011;16643;43.158;25.302;2023-05-29T01:07:39;18.73;;;10.63;;
29732;SDS011;16643;43.158;25.302;2023-05-29T01:10:09;22.30;;;12.23;;
29732;SDS011;16643;43.158;25.302;2023-05-29T01:12:43;17.25;;;11.48;;
29732;SDS011;16643;43.158;25.302;2023-05-29T01:15:56;18.38;;;12.07;;
29732;SDS011;16643;43.158;25.302;2023-05-29T01:21:49;21.52;;;11.52;;
29732;SDS011;16643;43.158;25.302;2023-05-29T01:24:37;16.45;;;11.85;;
29732;SDS011;16643;43.158;25.302;2023-05-29T01:27:30;18.90;;;12.32;;
29732;SDS011;16643;43.158;25.302;2023-05-29T01:30:02;23.17;;;14.18;;
29732;SDS011;16643;43.158;25.302;2023-05-29T01:32:35;18.08;;;13.35;;
29732;SDS011;16643;43.158;25.302;2023-05-29T01:35:01;21.73;;;13.80;;
29732;SDS011;16643;43.158;25.302;2023-05-29T01:37:29;25.02;;;14.10;;
29732;SDS011;16643;43.158;25.302;2023-05-29T01:39:55;21.52;;;14.40;;
29732;SDS011;16643;43.158;25.302;2023-05-29T01:42:21;24.00;;;15.82;;
29732;SDS011;16643;43.158;25.302;2023-05-29T01:44:52;19.77;;;13.73;;
29732;SDS011;16643;43.158;25.302;2023-05-29T01:47:19;23.73;;;14.98;;
29732;SDS011;16643;43.158;25.302;2023-05-29T01:49:50;23.33;;;14.65;;
29732;SDS011;16643;43.158;25.302;2023-05-29T01:52:17;27.65;;;15.23;;
29732;SDS011;16643;43.158;25.302;2023-05-29T01:54:43;21.70;;;14.23;;
29732;SDS011;16643;43.158;25.302;2023-05-29T01:57:09;26.73;;;16.67;;
29732;SDS011;16643;43.158;25.302;2023-05-29T01:59:43;20.85;;;13.98;;
29732;SDS011;16643;43.158;25.302;2023-05-29T02:02:09;21.88;;;15.38;;
29732;SDS011;16643;43.158;25.302;2023-05-29T02:04:39;22.05;;;15.35;;
29732;SDS011;16643;43.158;25.302;2023-05-29T02:07:09;24.40;;;16.50;;
29732;SDS011;16643;43.158;25.302;2023-05-29T02:09:40;27.13;;;17.40;;
29732;SDS011;16643;43.158;25.302;2023-05-29T02:12:06;22.75;;;16.83;;
29732;SDS011;16643;43.158;25.302;2023-05-29T02:14:43;24.08;;;17.00;;
29732;SDS011;16643;43.158;25.302;2023-05-29T02:17:11;23.85;;;17.15;;
29732;SDS011;16643;43.158;25.302;2023-05-29T02:19:41;27.08;;;17.63;;
29732;SDS011;16643;43.158;25.302;2023-05-29T02:22:16;24.08;;;16.75;;
29732;SDS011;16643;43.158;25.302;2023-05-29T02:24:44;24.88;;;17.63;;
29732;SDS011;16643;43.158;25.302;2023-05-29T02:27:15;24.55;;;17.88;;
29732;SDS011;16643;43.158;25.302;2023-05-29T02:29:45;25.15;;;18.67;;
29732;SDS011;16643;43.158;25.302;2023-05-29T02:32:20;26.55;;;18.73;;
29732;SDS011;16643;43.158;25.302;2023-05-29T02:34:46;27.65;;;18.67;;
29732;SDS011;16643;43.158;25.302;2023-05-29T02:37:22;27.25;;;17.30;;
29732;SDS011;16643;43.158;25.302;2023-05-29T02:39:51;23.27;;;17.45;;
29732;SDS011;16643;43.158;25.302;2023-05-29T02:42:21;28.13;;;17.38;;
29732;SDS011;16643;43.158;25.302;2023-05-29T02:44:56;34.25;;;18.50;;
29732;SDS011;16643;43.158;25.302;2023-05-29T02:47:28;31.20;;;18.05;;
29732;SDS011;16643;43.158;25.302;2023-05-29T02:49:56;24.98;;;18.20;;
29732;SDS011;16643;43.158;25.302;2023-05-29T02:52:26;24.77;;;16.23;;
29732;SDS011;16643;43.158;25.302;2023-05-29T02:54:52;21.73;;;16.98;;
29732;SDS011;16643;43.158;25.302;2023-05-29T02:57:19;24.98;;;17.33;;
29732;SDS011;16643;43.158;25.302;2023-05-29T02:59:45;25.23;;;17.48;;
29732;SDS011;16643;43.158;25.302;2023-05-29T03:02:11;29.17;;;18.67;;
29732;SDS011;16643;43.158;25.302;2023-05-29T03:04:37;25.02;;;17.50;;
29732;SDS011;16643;43.158;25.302;2023-05-29T03:07:07;23.60;;;17.02;;
29732;SDS011;16643;43.158;25.302;2023-05-29T03:09:40;23.67;;;17.58;;
29732;SDS011;16643;43.158;25.302;2023-05-29T03:12:07;24.65;;;16.85;;
29732;SDS011;16643;43.158;25.302;2023-05-29T03:14:33;26.90;;;17.92;;
29732;SDS011;16643;43.158;25.302;2023-05-29T03:17:05;22.73;;;17.02;;
29732;SDS011;16643;43.158;25.302;2023-05-29T03:19:34;23.83;;;17.33;;
29732;SDS011;16643;43.158;25.302;2023-05-29T03:22:03;24.77;;;17.73;;
29732;SDS011;16643;43.158;25.302;2023-05-29T03:24:30;26.75;;;18.15;;
29732;SDS011;16643;43.158;25.302;2023-05-29T03:27:00;27.60;;;17.98;;
29732;SDS011;16643;43.158;25.302;2023-05-29T03:29:31;28.48;;;17.85;;
29732;SDS011;16643;43.158;25.302;2023-05-29T03:32:00;28.88;;;19.48;;
29732;SDS011;16643;43.158;25.302;2023-05-29T03:34:33;32.72;;;20.00;;
29732;SDS011;16643;43.158;25.302;2023-05-29T03:37:00;26.95;;;19.58;;
29732;SDS011;16643;43.158;25.302;2023-05-29T03:39:29;29.70;;;21.00;;
29732;SDS011;16643;43.158;25.302;2023-05-29T03:42:00;33.95;;;21.35;;
29732;SDS011;16643;43.158;25.302;2023-05-29T03:44:28;40.83;;;23.13;;
29732;SDS011;16643;43.158;25.302;2023-05-29T03:46:53;31.80;;;20.83;;
29732;SDS011;16643;43.158;25.302;2023-05-29T03:49:28;36.55;;;21.65;;
29732;SDS011;16643;43.158;25.302;2023-05-29T03:51:58;33.67;;;22.77;;
29732;SDS011;16643;43.158;25.302;2023-05-29T03:54:27;37.75;;;23.98;;
29732;SDS011;16643;43.158;25.302;2023-05-29T03:56:53;37.72;;;24.48;;
29732;SDS011;16643;43.158;25.302;2023-05-29T03:59:21;37.72;;;24.15;;
29732;SDS011;16643;43.158;25.302;2023-05-29T04:01:46;36.58;;;23.75;;
29732;SDS011;16643;43.158;25.302;2023-05-29T04:04:16;32.88;;;22.35;;
29732;SDS011;16643;43.158;25.302;2023-05-29T04:06:50;33.55;;;22.73;;
29732;SDS011;16643;43.158;25.302;2023-05-29T04:09:20;37.65;;;23.33;;
29732;SDS011;16643;43.158;25.302;2023-05-29T04:11:46;34.97;;;23.58;;
29732;SDS011;16643;43.158;25.302;2023-05-29T04:14:11;35.55;;;23.48;;
29732;SDS011;16643;43.158;25.302;2023-05-29T04:16:39;38.00;;;24.23;;
29732;SDS011;16643;43.158;25.302;2023-05-29T04:19:08;35.78;;;23.13;;
29732;SDS011;16643;43.158;25.302;2023-05-29T04:21:45;37.53;;;24.38;;
29732;SDS011;16643;43.158;25.302;2023-05-29T04:24:12;38.35;;;25.48;;
29732;SDS011;16643;43.158;25.302;2023-05-29T04:26:39;38.00;;;24.23;;
29732;SDS011;16643;43.158;25.302;2023-05-29T04:29:18;33.40;;;22.35;;
29732;SDS011;16643;43.158;25.302;2023-05-29T04:31:46;33.28;;;22.08;;
29732;SDS011;16643;43.158;25.302;2023-05-29T04:36:41;37.40;;;22.07;;
29732;SDS011;16643;43.158;25.302;2023-05-29T04:39:09;37.00;;;23.90;;
29732;SDS011;16643;43.158;25.302;2023-05-29T04:41:35;36.85;;;22.90;;
29732;SDS011;16643;43.158;25.302;2023-05-29T04:44:06;33.67;;;22.10;;
29732;SDS011;16643;43.158;25.302;2023-05-29T04:46:38;36.67;;;22.35;;
29732;SDS011;16643;43.158;25.302;2023-05-29T04:49:04;36.20;;;21.52;;
29732;SDS011;16643;43.158;25.302;2023-05-29T04:51:33;32.15;;;21.73;;
29732;SDS011;16643;43.158;25.302;2023-05-29T04:54:05;29.13;;;19.80;;
29732;SDS011;16643;43.158;25.302;2023-05-29T04:56:35;30.23;;;18.92;;
29732;SDS011;16643;43.158;25.302;2023-05-29T04:59:04;26.58;;;18.17;;
29732;SDS011;16643;43.158;25.302;2023-05-29T05:01:33;27.55;;;18.02;;
29732;SDS011;16643;43.158;25.302;2023-05-29T05:03:59;30.58;;;20.50;;
29732;SDS011;16643;43.158;25.302;2023-05-29T05:06:30;29.38;;;18.83;;
29732;SDS011;16643;43.158;25.302;2023-05-29T05:08:55;32.05;;;19.95;;
29732;SDS011;16643;43.158;25.302;2023-05-29T05:11:26;27.38;;;18.80;;
29732;SDS011;16643;43.158;25.302;2023-05-29T05:13:52;27.05;;;18.95;;
29732;SDS011;16643;43.158;25.302;2023-05-29T05:18:45;29.33;;;19.00;;
29732;SDS011;16643;43.158;25.302;2023-05-29T05:21:15;31.10;;;20.20;;
29732;SDS011;16643;43.158;25.302;2023-05-29T05:23:49;34.05;;;22.85;;
29732;SDS011;16643;43.158;25.302;2023-05-29T05:26:15;34.30;;;21.55;;
29732;SDS011;16643;43.158;25.302;2023-05-29T05:28:43;30.25;;;20.55;;
29732;SDS011;16643;43.158;25.302;2023-05-29T05:31:09;33.83;;;20.92;;
29732;SDS011;16643;43.158;25.302;2023-05-29T05:33:36;29.55;;;20.70;;
29732;SDS011;16643;43.158;25.302;2023-05-29T05:36:21;32.25;;;20.17;;
29732;SDS011;16643;43.158;25.302;2023-05-29T05:38:50;29.42;;;20.25;;
29732;SDS011;16643;43.158;25.302;2023-05-29T05:41:15;32.28;;;21.23;;
29732;SDS011;16643;43.158;25.302;2023-05-29T05:43:41;29.20;;;19.85;;
29732;SDS011;16643;43.158;25.302;2023-05-29T05:46:10;30.88;;;20.60;;
29732;SDS011;16643;43.158;25.302;2023-05-29T05:48:35;35.22;;;21.75;;
29732;SDS011;16643;43.158;25.302;2023-05-29T05:51:05;34.97;;;21.98;;
29732;SDS011;16643;43.158;25.302;2023-05-29T05:53:30;35.65;;;23.02;;
29732;SDS011;16643;43.158;25.302;2023-05-29T05:55:58;30.15;;;21.23;;
29732;SDS011;16643;43.158;25.302;2023-05-29T05:58:24;35.25;;;21.65;;
29732;SDS011;16643;43.158;25.302;2023-05-29T06:00:50;30.67;;;20.17;;
29732;SDS011;16643;43.158;25.302;2023-05-29T06:03:17;31.90;;;22.52;;
29732;SDS011;16643;43.158;25.302;2023-05-29T06:05:43;37.70;;;22.40;;
29732;SDS011;16643;43.158;25.302;2023-05-29T06:08:10;31.35;;;20.70;;
29732;SDS011;16643;43.158;25.302;2023-05-29T06:10:36;29.25;;;19.75;;
29732;SDS011;16643;43.158;25.302;2023-05-29T06:13:09;29.42;;;21.40;;
29732;SDS011;16643;43.158;25.302;2023-05-29T06:15:39;32.13;;;20.70;;
29732;SDS011;16643;43.158;25.302;2023-05-29T06:18:05;33.28;;;21.67;;
29732;SDS011;16643;43.158;25.302;2023-05-29T06:20:31;38.85;;;23.13;;
29732;SDS011;16643;43.158;25.302;2023-05-29T06:23:01;33.00;;;20.95;;
29732;SDS011;16643;43.158;25.302;2023-05-29T06:25:27;33.50;;;22.63;;
29732;SDS011;16643;43.158;25.302;2023-05-29T06:28:07;34.53;;;20.98;;
29732;SDS011;16643;43.158;25.302;2023-05-29T06:30:49;31.77;;;20.95;;
29732;SDS011;16643;43.158;25.302;2023-05-29T06:33:14;30.88;;;22.80;;
29732;SDS011;16643;43.158;25.302;2023-05-29T06:35:44;30.45;;;21.27;;
29732;SDS011;16643;43.158;25.302;2023-05-29T06:38:11;32.38;;;22.83;;
29732;SDS011;16643;43.158;25.302;2023-05-29T06:40:37;31.80;;;22.02;;
29732;SDS011;16643;43.158;25.302;2023-05-29T06:43:05;36.92;;;22.70;;
29732;SDS011;16643;43.158;25.302;2023-05-29T06:45:30;35.58;;;21.40;;
29732;SDS011;16643;43.158;25.302;2023-05-29T06:47:56;30.55;;;20.75;;
29732;SDS011;16643;43.158;25.302;2023-05-29T06:50:26;31.10;;;21.02;;
29732;SDS011;16643;43.158;25.302;2023-05-29T06:52:56;31.20;;;22.05;;
29732;SDS011;16643;43.158;25.302;2023-05-29T06:55:23;34.30;;;23.23;;
29732;SDS011;16643;43.158;25.302;2023-05-29T06:57:49;27.88;;;20.55;;
29732;SDS011;16643;43.158;25.302;2023-05-29T07:00:17;33.47;;;22.05;;
29732;SDS011;16643;43.158;25.302;2023-05-29T07:02:44;36.83;;;21.87;;
29732;SDS011;16643;43.158;25.302;2023-05-29T07:05:09;35.28;;;22.05;;
29732;SDS011;16643;43.158;25.302;2023-05-29T07:07:35;33.17;;;22.38;;
29732;SDS011;16643;43.158;25.302;2023-05-29T07:10:05;32.17;;;22.73;;
29732;SDS011;16643;43.158;25.302;2023-05-29T07:12:34;31.48;;;21.83;;
29732;SDS011;16643;43.158;25.302;2023-05-29T07:15:00;38.17;;;23.83;;
29732;SDS011;16643;43.158;25.302;2023-05-29T07:17:26;32.75;;;22.60;;
29732;SDS011;16643;43.158;25.302;2023-05-29T07:19:51;34.88;;;23.75;;
29732;SDS011;16643;43.158;25.302;2023-05-29T07:22:19;31.52;;;21.42;;
29732;SDS011;16643;43.158;25.302;2023-05-29T07:24:48;33.58;;;22.65;;
29732;SDS011;16643;43.158;25.302;2023-05-29T07:27:13;31.80;;;22.25;;
29732;SDS011;16643;43.158;25.302;2023-05-29T07:29:39;30.85;;;21.10;;
29732;SDS011;16643;43.158;25.302;2023-05-29T07:32:09;36.67;;;22.17;;
29732;SDS011;16643;43.158;25.302;2023-05-29T07:34:36;33.95;;;21.90;;
29732;SDS011;16643;43.158;25.302;2023-05-29T07:37:05;35.30;;;21.55;;
29732;SDS011;16643;43.158;25.302;2023-05-29T07:39:34;38.38;;;21.73;;
29732;SDS011;16643;43.158;25.302;2023-05-29T07:42:02;30.00;;;21.30;;
29732;SDS011;16643;43.158;25.302;2023-05-29T07:44:28;33.28;;;19.75;;
29732;SDS011;16643;43.158;25.302;2023-05-29T07:46:54;26.42;;;18.55;;
29732;SDS011;16643;43.158;25.302;2023-05-29T07:49:20;29.17;;;19.30;;
29732;SDS011;16643;43.158;25.302;2023-05-29T07:51:46;26.58;;;18.00;;
29732;SDS011;16643;43.158;25.302;2023-05-29T07:54:11;25.08;;;16.98;;
29732;SDS011;16643;43.158;25.302;2023-05-29T07:56:42;25.05;;;17.80;;
29732;SDS011;16643;43.158;25.302;2023-05-29T07:59:09;25.58;;;18.40;;
29732;SDS011;16643;43.158;25.302;2023-05-29T08:01:37;25.02;;;19.20;;
29732;SDS011;16643;43.158;25.302;2023-05-29T08:04:06;27.02;;;18.13;;
29732;SDS011;16643;43.158;25.302;2023-05-29T08:06:32;26.63;;;19.17;;
29732;SDS011;16643;43.158;25.302;2023-05-29T08:09:01;26.63;;;17.63;;
29732;SDS011;16643;43.158;25.302;2023-05-29T08:11:28;24.45;;;16.63;;
29732;SDS011;16643;43.158;25.302;2023-05-29T08:13:58;26.90;;;18.27;;
29732;SDS011;16643;43.158;25.302;2023-05-29T08:16:24;24.52;;;17.77;;
29732;SDS011;16643;43.158;25.302;2023-05-29T08:18:52;25.73;;;18.75;;
29732;SDS011;16643;43.158;25.302;2023-05-29T08:21:17;25.58;;;18.63;;
29732;SDS011;16643;43.158;25.302;2023-05-29T08:23:43;27.65;;;18.60;;
29732;SDS011;16643;43.158;25.302;2023-05-29T08:26:09;27.45;;;19.45;;
29732;SDS011;16643;43.158;25.302;2023-05-29T08:28:34;27.15;;;19.13;;
29732;SDS011;16643;43.158;25.302;2023-05-29T08:31:00;27.35;;;19.63;;
29732;SDS011;16643;43.158;25.302;2023-05-29T08:33:26;27.67;;;18.45;;
29732;SDS011;16643;43.158;25.302;2023-05-29T08:35:51;25.05;;;17.70;;
29732;SDS011;16643;43.158;25.302;2023-05-29T08:38:18;26.02;;;18.60;;
29732;SDS011;16643;43.158;25.302;2023-05-29T08:40:46;22.67;;;16.85;;
29732;SDS011;16643;43.158;25.302;2023-05-29T08:43:18;20.83;;;15.60;;
29732;SDS011;16643;43.158;25.302;2023-05-29T08:45:47;22.20;;;16.02;;
29732;SDS011;16643;43.158;25.302;2023-05-29T08:48:16;26.63;;;17.90;;
29732;SDS011;16643;43.158;25.302;2023-05-29T08:50:47;21.50;;;16.52;;
29732;SDS011;16643;43.158;25.302;2023-05-29T08:53:13;27.65;;;17.73;;
29732;SDS011;16643;43.158;25.302;2023-05-29T08:55:40;26.20;;;17.60;;
29732;SDS011;16643;43.158;25.302;2023-05-29T08:58:06;22.48;;;17.05;;
29732;SDS011;16643;43.158;25.302;2023-05-29T09:00:33;28.08;;;16.95;;
29732;SDS011;16643;43.158;25.302;2023-05-29T09:02:59;21.55;;;15.25;;
29732;SDS011;16643;43.158;25.302;2023-05-29T09:05:25;24.00;;;15.45;;
29732;SDS011;16643;43.158;25.302;2023-05-29T09:07:53;22.83;;;17.45;;
29732;SDS011;16643;43.158;25.302;2023-05-29T09:10:23;24.35;;;16.20;;
29732;SDS011;16643;43.158;25.302;2023-05-29T09:12:50;21.83;;;15.48;;
29732;SDS011;16643;43.158;25.302;2023-05-29T09:15:20;26.30;;;16.73;;
29732;SDS011;16643;43.158;25.302;2023-05-29T09:17:50;22.17;;;15.63;;
29732;SDS011;16643;43.158;25.302;2023-05-29T09:20:17;22.55;;;16.02;;
29732;SDS011;16643;43.158;25.302;2023-05-29T09:22:51;22.77;;;16.15;;
29732;SDS011;16643;43.158;25.302;2023-05-29T09:25:29;20.40;;;14.32;;
29732;SDS011;16643;43.158;25.302;2023-05-29T09:28:01;21.38;;;15.43;;
29732;SDS011;16643;43.158;25.302;2023-05-29T09:30:33;22.27;;;15.38;;
29732;SDS011;16643;43.158;25.302;2023-05-29T09:33:00;24.05;;;16.52;;
29732;SDS011;16643;43.158;25.302;2023-05-29T09:35:33;24.80;;;17.20;;
29732;SDS011;16643;43.158;25.302;2023-05-29T09:38:00;21.75;;;14.77;;
29732;SDS011;16643;43.158;25.302;2023-05-29T09:40:26;21.95;;;15.88;;
29732;SDS011;16643;43.158;25.302;2023-05-29T09:42:54;21.20;;;15.55;;
29732;SDS011;16643;43.158;25.302;2023-05-29T09:45:20;20.88;;;15.55;;
29732;SDS011;16643;43.158;25.302;2023-05-29T09:47:47;24.13;;;15.20;;
29732;SDS011;16643;43.158;25.302;2023-05-29T09:50:19;19.83;;;14.13;;
29732;SDS011;16643;43.158;25.302;2023-05-29T09:52:50;22.77;;;15.03;;
29732;SDS011;16643;43.158;25.302;2023-05-29T09:55:17;23.23;;;15.98;;
29732;SDS011;16643;43.158;25.302;2023-05-29T09:57:46;20.35;;;15.50;;
29732;SDS011;16643;43.158;25.302;2023-05-29T10:00:16;20.42;;;14.00;;
29732;SDS011;16643;43.158;25.302;2023-05-29T10:02:42;23.07;;;15.13;;
29732;SDS011;16643;43.158;25.302;2023-05-29T10:05:08;20.90;;;15.70;;
29732;SDS011;16643;43.158;25.302;2023-05-29T10:07:36;22.30;;;14.80;;
29732;SDS011;16643;43.158;25.302;2023-05-29T10:10:03;21.17;;;14.48;;
29732;SDS011;16643;43.158;25.302;2023-05-29T10:12:34;17.85;;;14.52;;
29732;SDS011;16643;43.158;25.302;2023-05-29T10:15:05;17.42;;;13.82;;
29732;SDS011;16643;43.158;25.302;2023-05-29T10:17:36;19.10;;;13.88;;
29732;SDS011;16643;43.158;25.302;2023-05-29T10:20:05;18.48;;;13.93;;
29732;SDS011;16643;43.158;25.302;2023-05-29T10:22:39;19.35;;;13.43;;
29732;SDS011;16643;43.158;25.302;2023-05-29T10:25:09;18.27;;;14.35;;
29732;SDS011;16643;43.158;25.302;2023-05-29T10:27:37;21.25;;;14.13;;
29732;SDS011;16643;43.158;25.302;2023-05-29T10:38:28;18.52;;;14.00;;
29732;SDS011;16643;43.158;25.302;2023-05-29T10:40:54;17.50;;;13.73;;
29732;SDS011;16643;43.158;25.302;2023-05-29T10:43:30;16.25;;;13.07;;
29732;SDS011;16643;43.158;25.302;2023-05-29T10:45:59;16.38;;;13.82;;
29732;SDS011;16643;43.158;25.302;2023-05-29T10:50:55;19.67;;;13.90;;
29732;SDS011;16643;43.158;25.302;2023-05-29T10:53:24;22.40;;;14.02;;
29732;SDS011;16643;43.158;25.302;2023-05-29T10:55:51;14.98;;;12.50;;
29732;SDS011;16643;43.158;25.302;2023-05-29T10:58:19;15.20;;;13.43;;
29732;SDS011;16643;43.158;25.302;2023-05-29T11:00:46;18.40;;;12.82;;
29732;SDS011;16643;43.158;25.302;2023-05-29T11:03:15;17.33;;;12.82;;
29732;SDS011;16643;43.158;25.302;2023-05-29T11:05:59;16.88;;;13.73;;
29732;SDS011;16643;43.158;25.302;2023-05-29T11:08:34;15.07;;;12.27;;
29732;SDS011;16643;43.158;25.302;2023-05-29T11:11:06;17.38;;;13.07;;
29732;SDS011;16643;43.158;25.302;2023-05-29T11:13:35;15.82;;;11.43;;
29732;SDS011;16643;43.158;25.302;2023-05-29T11:18:49;16.90;;;11.93;;
29732;SDS011;16643;43.158;25.302;2023-05-29T11:24:22;14.95;;;11.80;;
29732;SDS011;16643;43.158;25.302;2023-05-29T11:26:50;15.32;;;11.70;;
29732;SDS011;16643;43.158;25.302;2023-05-29T11:29:24;13.85;;;11.27;;
29732;SDS011;16643;43.158;25.302;2023-05-29T11:32:03;16.50;;;11.45;;
29732;SDS011;16643;43.158;25.302;2023-05-29T11:34:38;15.75;;;10.80;;
29732;SDS011;16643;43.158;25.302;2023-05-29T11:37:06;13.75;;;11.35;;
29732;SDS011;16643;43.158;25.302;2023-05-29T11:39:39;15.13;;;11.20;;
29732;SDS011;16643;43.158;25.302;2023-05-29T11:42:06;14.43;;;11.00;;
29732;SDS011;16643;43.158;25.302;2023-05-29T11:44:33;15.45;;;11.45;;
29732;SDS011;16643;43.158;25.302;2023-05-29T11:47:05;13.82;;;10.70;;
29732;SDS011;16643;43.158;25.302;2023-05-29T11:49:32;16.10;;;10.88;;
29732;SDS011;16643;43.158;25.302;2023-05-29T11:52:11;11.10;;;9.18;;
29732;SDS011;16643;43.158;25.302;2023-05-29T11:54:42;16.38;;;9.85;;
29732;SDS011;16643;43.158;25.302;2023-05-29T11:57:17;13.70;;;9.35;;
29732;SDS011;16643;43.158;25.302;2023-05-29T11:59:43;12.88;;;9.18;;
29732;SDS011;16643;43.158;25.302;2023-05-29T12:02:09;15.02;;;9.65;;
29732;SDS011;16643;43.158;25.302;2023-05-29T12:04:36;14.93;;;9.87;;
29732;SDS011;16643;43.158;25.302;2023-05-29T12:07:02;14.80;;;10.23;;
29732;SDS011;16643;43.158;25.302;2023-05-29T12:09:42;9.75;;;8.70;;
29732;SDS011;16643;43.158;25.302;2023-05-29T12:12:07;16.63;;;9.43;;
29732;SDS011;16643;43.158;25.302;2023-05-29T12:14:33;12.57;;;9.77;;
29732;SDS011;16643;43.158;25.302;2023-05-29T12:16:58;6.47;;;4.95;;
29732;SDS011;16643;43.158;25.302;2023-05-29T12:19:27;9.90;;;3.63;;
29732;SDS011;16643;43.158;25.302;2023-05-29T12:21:53;5.13;;;2.85;;
29732;SDS011;16643;43.158;25.302;2023-05-29T12:24:19;6.65;;;2.33;;
29732;SDS011;16643;43.158;25.302;2023-05-29T12:26:44;7.75;;;3.17;;
29732;SDS011;16643;43.158;25.302;2023-05-29T12:29:12;5.38;;;2.05;;
29732;SDS011;16643;43.158;25.302;2023-05-29T12:31:38;4.90;;;2.35;;
29732;SDS011;16643;43.158;25.302;2023-05-29T12:34:11;7.60;;;3.47;;
29732;SDS011;16643;43.158;25.302;2023-05-29T12:36:42;6.10;;;2.92;;
29732;SDS011;16643;43.158;25.302;2023-05-29T12:39:10;6.25;;;2.90;;
29732;SDS011;16643;43.158;25.302;2023-05-29T12:41:37;5.90;;;2.10;;
29732;SDS011;16643;43.158;25.302;2023-05-29T12:44:04;4.20;;;2.63;;
29732;SDS011;16643;43.158;25.302;2023-05-29T12:46:38;3.78;;;1.88;;
29732;SDS011;16643;43.158;25.302;2023-05-29T12:49:14;2.15;;;1.60;;
29732;SDS011;16643;43.158;25.302;2023-05-29T12:51:42;2.97;;;2.00;;
29732;SDS011;16643;43.158;25.302;2023-05-29T12:54:15;6.43;;;2.28;;
29732;SDS011;16643;43.158;25.302;2023-05-29T12:56:41;4.90;;;2.20;;
29732;SDS011;16643;43.158;25.302;2023-05-29T12:59:09;8.82;;;3.00;;
29732;SDS011;16643;43.158;25.302;2023-05-29T13:04:02;3.85;;;1.88;;
29732;SDS011;16643;43.158;25.302;2023-05-29T13:06:28;4.90;;;1.73;;
29732;SDS011;16643;43.158;25.302;2023-05-29T13:08:54;3.95;;;1.90;;
29732;SDS011;16643;43.158;25.302;2023-05-29T13:11:20;3.33;;;1.90;;
29732;SDS011;16643;43.158;25.302;2023-05-29T13:13:47;2.97;;;1.67;;
29732;SDS011;16643;43.158;25.302;2023-05-29T13:16:13;5.28;;;2.00;;
29732;SDS011;16643;43.158;25.302;2023-05-29T13:18:38;2.65;;;1.77;;
29732;SDS011;16643;43.158;25.302;2023-05-29T13:21:04;3.35;;;1.83;;
29732;SDS011;16643;43.158;25.302;2023-05-29T13:23:29;4.05;;;2.35;;
29732;SDS011;16643;43.158;25.302;2023-05-29T13:25:55;5.82;;;2.80;;
29732;SDS011;16643;43.158;25.302;2023-05-29T13:28:21;3.80;;;3.00;;
29732;SDS011;16643;43.158;25.302;2023-05-29T13:30:46;4.25;;;2.63;;
29732;SDS011;16643;43.158;25.302;2023-05-29T13:33:12;6.30;;;2.47;;
29732;SDS011;16643;43.158;25.302;2023-05-29T13:35:37;5.05;;;2.95;;
29732;SDS011;16643;43.158;25.302;2023-05-29T13:38:03;3.65;;;2.45;;
29732;SDS011;16643;43.158;25.302;2023-05-29T13:40:29;5.38;;;2.90;;
29732;SDS011;16643;43.158;25.302;2023-05-29T13:42:55;6.90;;;2.58;;
29732;SDS011;16643;43.158;25.302;2023-05-29T13:45:21;4.88;;;2.92;;
29732;SDS011;16643;43.158;25.302;2023-05-29T13:47:47;4.95;;;3.22;;
29732;SDS011;16643;43.158;25.302;2023-05-29T13:50:14;8.45;;;5.30;;
29732;SDS011;16643;43.158;25.302;2023-05-29T13:52:40;7.70;;;5.40;;
29732;SDS011;16643;43.158;25.302;2023-05-29T13:55:12;14.98;;;6.13;;
29732;SDS011;16643;43.158;25.302;2023-05-29T13:57:38;6.63;;;4.28;;
29732;SDS011;16643;43.158;25.302;2023-05-29T14:00:05;6.13;;;4.18;;
29732;SDS011;16643;43.158;25.302;2023-05-29T14:02:33;8.93;;;4.50;;
29732;SDS011;16643;43.158;25.302;2023-05-29T14:04:59;6.43;;;4.13;;
29732;SDS011;16643;43.158;25.302;2023-05-29T14:07:24;4.30;;;2.42;;
29732;SDS011;16643;43.158;25.302;2023-05-29T14:09:54;4.70;;;2.28;;
29732;SDS011;16643;43.158;25.302;2023-05-29T14:12:20;5.82;;;3.63;;
29732;SDS011;16643;43.158;25.302;2023-05-29T14:14:47;7.35;;;4.43;;
29732;SDS011;16643;43.158;25.302;2023-05-29T14:17:14;6.28;;;2.97;;
29732;SDS011;16643;43.158;25.302;2023-05-29T14:19:40;5.50;;;3.38;;
29732;SDS011;16643;43.158;25.302;2023-05-29T14:22:06;5.53;;;3.53;;
29732;SDS011;16643;43.158;25.302;2023-05-29T14:24:33;4.70;;;3.47;;
29732;SDS011;16643;43.158;25.302;2023-05-29T14:27:01;3.85;;;2.72;;
29732;SDS011;16643;43.158;25.302;2023-05-29T14:29:32;5.47;;;2.88;;
29732;SDS011;16643;43.158;25.302;2023-05-29T14:31:57;4.38;;;2.90;;
29732;SDS011;16643;43.158;25.302;2023-05-29T14:34:23;4.60;;;3.00;;
29732;SDS011;16643;43.158;25.302;2023-05-29T14:36:50;6.30;;;2.90;;
29732;SDS011;16643;43.158;25.302;2023-05-29T14:39:15;5.60;;;2.72;;
29732;SDS011;16643;43.158;25.302;2023-05-29T14:41:41;5.07;;;3.53;;
29732;SDS011;16643;43.158;25.302;2023-05-29T14:44:07;4.47;;;3.33;;
29732;SDS011;16643;43.158;25.302;2023-05-29T14:46:32;4.47;;;3.00;;
29732;SDS011;16643;43.158;25.302;2023-05-29T14:49:01;4.90;;;3.03;;
29732;SDS011;16643;43.158;25.302;2023-05-29T14:51:27;6.05;;;3.28;;